sensor_id;sensor_type;location;lat;lon;timestamp;pressure;altitude;pressure_sealevel;temperature;humidity
7297;BME280;40758;54.038;11.684;2023-02-10T00:01:42;102663.09;;;2.19;100.00
7297;BME280;40758;54.038;11.684;2023-02-10T00:04:12;102671.84;;;2.23;100.00
7297;BME280;40758;54.038;11.684;2023-02-10T00:06:41;102677.13;;;2.26;100.00
7297;BME280;40758;54.038;11.684;2023-02-10T00:09:12;102671.84;;;2.23;100.00
7297;BME280;40758;54.038;11.684;2023-02-10T00:11:42;102682.44;;;2.23;100.00
7297;BME280;40758;54.038;11.684;2023-02-10T00:14:29;102678.09;;;2.20;100.00
7297;BME280;40758;54.038;11.684;2023-02-10T00:16:58;102674.56;;;2.20;100.00
7297;BME280;40758;54.038;11.684;2023-02-10T00:19:28;102669.28;;;2.18;100.00
7297;BME280;40758;54.038;11.684;2023-02-10T00:21:58;102671.06;;;2.18;100.00
7297;BME280;40758;54.038;11.684;2023-02-10T00:24:27;102678.19;;;2.16;100.00
7297;BME280;40758;54.038;11.684;2023-02-10T00:26:57;102683.50;;;2.16;100.00
7297;BME280;40758;54.038;11.684;2023-02-10T00:29:26;102684.50;;;2.09;100.00
7297;BME280;40758;54.038;11.684;2023-02-10T00:31:56;102691.59;;;2.07;100.00
7297;BME280;40758;54.038;11.684;2023-02-10T00:34:24;102683.81;;;1.97;100.00
7297;BME280;40758;54.038;11.684;2023-02-10T00:36:54;102675.03;;;1.92;100.00
7297;BME280;40758;54.038;11.684;2023-02-10T00:39:23;102681.31;;;1.85;100.00
7297;BME280;40758;54.038;11.684;2023-02-10T00:41:51;102680.53;;;1.80;100.00
7297;BME280;40758;54.038;11.684;2023-02-10T00:44:21;102678.06;;;1.70;100.00
7297;BME280;40758;54.038;11.684;2023-02-10T00:46:49;102685.09;;;1.71;100.00
7297;BME280;40758;54.038;11.684;2023-02-10T00:49:18;102678.16;;;1.63;100.00
7297;BME280;40758;54.038;11.684;2023-02-10T00:51:46;102672.84;;;1.63;100.00
7297;BME280;40758;54.038;11.684;2023-02-10T00:54:15;102671.88;;;1.69;100.00
7297;BME280;40758;54.038;11.684;2023-02-10T00:56:43;102662.25;;;1.63;100.00
7297;BME280;40758;54.038;11.684;2023-02-10T00:59:13;102662.22;;;1.65;100.00
7297;BME280;40758;54.038;11.684;2023-02-10T01:01:44;102664.03;;;1.63;100.00
7297;BME280;40758;54.038;11.684;2023-02-10T01:04:13;102655.19;;;1.64;100.00
7297;BME280;40758;54.038;11.684;2023-02-10T01:06:42;102649.72;;;1.73;100.00
7297;BME280;40758;54.038;11.684;2023-02-10T01:09:10;102649.69;;;1.76;100.00
7297;BME280;40758;54.038;11.684;2023-02-10T01:11:39;102648.78;;;1.79;100.00
7297;BME280;40758;54.038;11.684;2023-02-10T01:14:07;102648.78;;;1.77;100.00
7297;BME280;40758;54.038;11.684;2023-02-10T01:16:36;102660.31;;;1.73;100.00
7297;BME280;40758;54.038;11.684;2023-02-10T01:19:06;102662.06;;;1.74;100.00
7297;BME280;40758;54.038;11.684;2023-02-10T01:21:35;102663.72;;;1.81;100.00
7297;BME280;40758;54.038;11.684;2023-02-10T01:24:06;102670.88;;;1.78;100.00
7297;BME280;40758;54.038;11.684;2023-02-10T01:26:34;102667.16;;;1.88;100.00
7297;BME280;40758;54.038;11.684;2023-02-10T01:29:04;102666.28;;;1.86;100.00
7297;BME280;40758;54.038;11.684;2023-02-10T01:31:32;102673.38;;;1.85;100.00
7297;BME280;40758;54.038;11.684;2023-02-10T01:34:01;102675.84;;;1.97;100.00
7297;BME280;40758;54.038;11.684;2023-02-10T01:36:30;102673.09;;;2.03;100.00
7297;BME280;40758;54.038;11.684;2023-02-10T01:39:00;102675.56;;;2.14;100.00
7297;BME280;40758;54.038;11.684;2023-02-10T01:41:28;102674.59;;;2.18;100.00
7297;BME280;40758;54.038;11.684;2023-02-10T01:44:00;102670.06;;;2.23;100.00
7297;BME280;40758;54.038;11.684;2023-02-10T01:46:30;102670.94;;;2.25;100.00
7297;BME280;40758;54.038;11.684;2023-02-10T01:49:02;102672.69;;;2.26;100.00
7297;BME280;40758;54.038;11.684;2023-02-10T01:51:41;102666.50;;;2.26;100.00
7297;BME280;40758;54.038;11.684;2023-02-10T01:54:14;102667.34;;;2.28;100.00
7297;BME280;40758;54.038;11.684;2023-02-10T01:56:47;102667.38;;;2.26;100.00
7297;BME280;40758;54.038;11.684;2023-02-10T01:59:17;102664.63;;;2.31;100.00
7297;BME280;40758;54.038;11.684;2023-02-10T02:01:50;102669.03;;;2.32;100.00
7297;BME280;40758;54.038;11.684;2023-02-10T02:04:18;102680.50;;;2.34;100.00
7297;BME280;40758;54.038;11.684;2023-02-10T02:06:49;102677.91;;;2.29;100.00
7297;BME280;40758;54.038;11.684;2023-02-10T02:09:18;102675.19;;;2.34;100.00
7297;BME280;40758;54.038;11.684;2023-02-10T02:11:58;102677.88;;;2.32;100.00
7297;BME280;40758;54.038;11.684;2023-02-10T02:14:38;102666.28;;;2.38;100.00
7297;BME280;40758;54.038;11.684;2023-02-10T02:17:18;102674.22;;;2.38;100.00
7297;BME280;40758;54.038;11.684;2023-02-10T02:20:26;102669.91;;;2.32;100.00
7297;BME280;40758;54.038;11.684;2023-02-10T02:23:54;102660.06;;;2.39;100.00
7297;BME280;40758;54.038;11.684;2023-02-10T02:30:40;102683.06;;;2.38;100.00
7297;BME280;40758;54.038;11.684;2023-02-10T02:33:14;102674.13;;;2.44;100.00
7297;BME280;40758;54.038;11.684;2023-02-10T02:35:55;102671.50;;;2.41;100.00
7297;BME280;40758;54.038;11.684;2023-02-10T02:38:25;102675.88;;;2.45;100.00
7297;BME280;40758;54.038;11.684;2023-02-10T02:40:53;102685.59;;;2.46;100.00
7297;BME280;40758;54.038;11.684;2023-02-10T02:43:23;102671.41;;;2.47;100.00
7297;BME280;40758;54.038;11.684;2023-02-10T02:45:59;102656.44;;;2.43;100.00
7297;BME280;40758;54.038;11.684;2023-02-10T02:48:52;102672.25;;;2.49;100.00
7297;BME280;40758;54.038;11.684;2023-02-10T02:51:36;102667.84;;;2.48;100.00
7297;BME280;40758;54.038;11.684;2023-02-10T02:54:19;102675.75;;;2.51;100.00
7297;BME280;40758;54.038;11.684;2023-02-10T02:56:57;102683.72;;;2.51;100.00
7297;BME280;40758;54.038;11.684;2023-02-10T02:59:36;102680.28;;;2.46;100.00
7297;BME280;40758;54.038;11.684;2023-02-10T03:02:11;102668.94;;;2.36;100.00
7297;BME280;40758;54.038;11.684;2023-02-10T03:04:43;102672.63;;;2.29;100.00
7297;BME280;40758;54.038;11.684;2023-02-10T03:07:11;102670.13;;;2.20;100.00
7297;BME280;40758;54.038;11.684;2023-02-10T03:09:40;102667.63;;;2.13;100.00
7297;BME280;40758;54.038;11.684;2023-02-10T03:12:10;102668.63;;;2.06;100.00
7297;BME280;40758;54.038;11.684;2023-02-10T03:14:39;102666.88;;;2.04;100.00
7297;BME280;40758;54.038;11.684;2023-02-10T03:17:08;102667.94;;;1.94;100.00
7297;BME280;40758;54.038;11.684;2023-02-10T03:19:36;102677.63;;;1.95;100.00
7297;BME280;40758;54.038;11.684;2023-02-10T03:22:06;102670.69;;;1.88;100.00
7297;BME280;40758;54.038;11.684;2023-02-10T03:24:34;102667.97;;;1.91;100.00
7297;BME280;40758;54.038;11.684;2023-02-10T03:27:03;102660.84;;;1.95;100.00
7297;BME280;40758;54.038;11.684;2023-02-10T03:29:32;102664.50;;;1.89;100.00
7297;BME280;40758;54.038;11.684;2023-02-10T03:32:01;102664.41;;;1.92;100.00
7297;BME280;40758;54.038;11.684;2023-02-10T03:34:30;102665.31;;;1.91;100.00
7297;BME280;40758;54.038;11.684;2023-02-10T03:36:59;102664.56;;;1.85;100.00
7297;BME280;40758;54.038;11.684;2023-02-10T03:39:29;102674.09;;;1.96;100.00
7297;BME280;40758;54.038;11.684;2023-02-10T03:41:58;102681.22;;;1.91;100.00
7297;BME280;40758;54.038;11.684;2023-02-10T03:44:28;102689.13;;;1.94;100.00
7297;BME280;40758;54.038;11.684;2023-02-10T03:46:57;102691.75;;;1.97;100.00
7297;BME280;40758;54.038;11.684;2023-02-10T03:49:25;102697.06;;;1.97;100.00
7297;BME280;40758;54.038;11.684;2023-02-10T03:51:54;102705.00;;;1.97;100.00
7297;BME280;40758;54.038;11.684;2023-02-10T03:54:22;102699.78;;;1.91;100.00
7297;BME280;40758;54.038;11.684;2023-02-10T03:56:52;102704.09;;;1.98;100.00
7297;BME280;40758;54.038;11.684;2023-02-10T03:59:20;102705.84;;;1.99;100.00
7297;BME280;40758;54.038;11.684;2023-02-10T04:01:48;102708.34;;;2.09;100.00
7297;BME280;40758;54.038;11.684;2023-02-10T04:04:17;102716.16;;;2.16;100.00
7297;BME280;40758;54.038;11.684;2023-02-10T04:06:45;102717.84;;;2.22;100.00
7297;BME280;40758;54.038;11.684;2023-02-10T04:09:14;102721.41;;;2.21;100.00
7297;BME280;40758;54.038;11.684;2023-02-10T04:11:42;102719.44;;;2.32;100.00
7297;BME280;40758;54.038;11.684;2023-02-10T04:14:12;102719.31;;;2.38;100.00
7297;BME280;40758;54.038;11.684;2023-02-10T04:16:41;102728.16;;;2.40;100.00
7297;BME280;40758;54.038;11.684;2023-02-10T04:19:10;102720.03;;;2.48;100.00
7297;BME280;40758;54.038;11.684;2023-02-10T04:21:38;102711.97;;;2.54;100.00
7297;BME280;40758;54.038;11.684;2023-02-10T04:24:06;102706.50;;;2.63;100.00
7297;BME280;40758;54.038;11.684;2023-02-10T04:26:35;102707.38;;;2.62;100.00
7297;BME280;40758;54.038;11.684;2023-02-10T04:29:03;102718.84;;;2.65;100.00
7297;BME280;40758;54.038;11.684;2023-02-10T04:31:34;102717.00;;;2.67;100.00
7297;BME280;40758;54.038;11.684;2023-02-10T04:34:02;102726.63;;;2.74;100.00
7297;BME280;40758;54.038;11.684;2023-02-10T04:36:31;102733.59;;;2.78;100.00
7297;BME280;40758;54.038;11.684;2023-02-10T04:38:59;102728.22;;;2.83;100.00
7297;BME280;40758;54.038;11.684;2023-02-10T04:41:28;102722.88;;;2.84;100.00
7297;BME280;40758;54.038;11.684;2023-02-10T04:43:57;102736.84;;;2.94;100.00
7297;BME280;40758;54.038;11.684;2023-02-10T04:46:25;102728.97;;;2.90;100.00
7297;BME280;40758;54.038;11.684;2023-02-10T04:48:55;102727.16;;;2.92;100.00
7297;BME280;40758;54.038;11.684;2023-02-10T04:51:23;102728.00;;;2.94;100.00
7297;BME280;40758;54.038;11.684;2023-02-10T04:53:53;102724.56;;;2.89;100.00
7297;BME280;40758;54.038;11.684;2023-02-10T04:56:21;102720.94;;;2.93;100.00
7297;BME280;40758;54.038;11.684;2023-02-10T04:58:49;102720.91;;;2.94;100.00
7297;BME280;40758;54.038;11.684;2023-02-10T05:01:18;102723.47;;;2.99;100.00
7297;BME280;40758;54.038;11.684;2023-02-10T05:03:47;102713.88;;;2.92;100.00
7297;BME280;40758;54.038;11.684;2023-02-10T05:06:17;102729.88;;;2.89;100.00
7297;BME280;40758;54.038;11.684;2023-02-10T05:08:45;102728.97;;;2.90;100.00
7297;BME280;40758;54.038;11.684;2023-02-10T05:11:17;102732.53;;;2.89;100.00
7297;BME280;40758;54.038;11.684;2023-02-10T05:13:46;102726.38;;;2.87;100.00
7297;BME280;40758;54.038;11.684;2023-02-10T05:16:17;102713.22;;;2.80;100.00
7297;BME280;40758;54.038;11.684;2023-02-10T05:18:45;102712.38;;;2.78;100.00
7297;BME280;40758;54.038;11.684;2023-02-10T05:21:13;102714.13;;;2.78;100.00
7297;BME280;40758;54.038;11.684;2023-02-10T05:23:43;102712.59;;;2.68;100.00
7297;BME280;40758;54.038;11.684;2023-02-10T05:26:12;102717.09;;;2.64;100.00
7297;BME280;40758;54.038;11.684;2023-02-10T05:28:40;102722.28;;;2.70;100.00
7297;BME280;40758;54.038;11.684;2023-02-10T05:31:08;102730.19;;;2.72;100.00
7297;BME280;40758;54.038;11.684;2023-02-10T05:33:37;102723.06;;;2.75;100.00
7297;BME280;40758;54.038;11.684;2023-02-10T05:36:06;102733.69;;;2.74;100.00
7297;BME280;40758;54.038;11.684;2023-02-10T05:38:35;102740.75;;;2.75;100.00
7297;BME280;40758;54.038;11.684;2023-02-10T05:41:05;102724.84;;;2.75;100.00
7297;BME280;40758;54.038;11.684;2023-02-10T05:43:33;102719.56;;;2.72;100.00
7297;BME280;40758;54.038;11.684;2023-02-10T05:46:01;102738.09;;;2.75;100.00
7297;BME280;40758;54.038;11.684;2023-02-10T05:48:30;102731.91;;;2.76;100.00
7297;BME280;40758;54.038;11.684;2023-02-10T05:50:59;102734.56;;;2.74;100.00
7297;BME280;40758;54.038;11.684;2023-02-10T05:53:28;102741.56;;;2.78;100.00
7297;BME280;40758;54.038;11.684;2023-02-10T05:55:57;102745.97;;;2.79;100.00
7297;BME280;40758;54.038;11.684;2023-02-10T05:58:26;102752.13;;;2.81;100.00
7297;BME280;40758;54.038;11.684;2023-02-10T06:00:59;102745.97;;;2.79;100.00
7297;BME280;40758;54.038;11.684;2023-02-10T06:03:28;102742.41;;;2.80;100.00
7297;BME280;40758;54.038;11.684;2023-02-10T06:05:57;102753.91;;;2.82;100.00
7297;BME280;40758;54.038;11.684;2023-02-10T06:08:26;102751.34;;;2.76;100.00
7297;BME280;40758;54.038;11.684;2023-02-10T06:10:54;102751.34;;;2.76;100.00
7297;BME280;40758;54.038;11.684;2023-02-10T06:13:23;102756.72;;;2.72;100.00
7297;BME280;40758;54.038;11.684;2023-02-10T06:15:53;102747.97;;;2.67;100.00
7297;BME280;40758;54.038;11.684;2023-02-10T06:18:21;102754.13;;;2.70;100.00
7297;BME280;40758;54.038;11.684;2023-02-10T06:20:50;102756.69;;;2.75;100.00
7297;BME280;40758;54.038;11.684;2023-02-10T06:23:20;102762.03;;;2.72;100.00
7297;BME280;40758;54.038;11.684;2023-02-10T06:25:48;102771.00;;;2.66;100.00
7297;BME280;40758;54.038;11.684;2023-02-10T06:28:22;102775.41;;;2.67;100.00
7297;BME280;40758;54.038;11.684;2023-02-10T06:30:53;102784.16;;;2.72;100.00
7297;BME280;40758;54.038;11.684;2023-02-10T06:33:25;102777.81;;;2.79;100.00
7297;BME280;40758;54.038;11.684;2023-02-10T06:35:54;102775.97;;;2.84;100.00
7297;BME280;40758;54.038;11.684;2023-02-10T06:38:22;102776.03;;;2.81;100.00
7297;BME280;40758;54.038;11.684;2023-02-10T06:40:51;102788.34;;;2.85;100.00
7297;BME280;40758;54.038;11.684;2023-02-10T06:43:19;102787.44;;;2.87;100.00
7297;BME280;40758;54.038;11.684;2023-02-10T06:45:48;102775.06;;;2.85;100.00
7297;BME280;40758;54.038;11.684;2023-02-10T06:48:18;102778.56;;;2.88;100.00
7297;BME280;40758;54.038;11.684;2023-02-10T06:50:47;102777.72;;;2.84;100.00
7297;BME280;40758;54.038;11.684;2023-02-10T06:53:16;102781.22;;;2.88;100.00
7297;BME280;40758;54.038;11.684;2023-02-10T06:55:45;102790.09;;;2.85;100.00
7297;BME280;40758;54.038;11.684;2023-02-10T06:58:15;102801.50;;;2.90;100.00
7297;BME280;40758;54.038;11.684;2023-02-10T07:00:43;102798.03;;;2.88;100.00
7297;BME280;40758;54.038;11.684;2023-02-10T07:03:14;102795.41;;;2.85;100.00
7297;BME280;40758;54.038;11.684;2023-02-10T07:05:43;102799.84;;;2.84;100.00
7297;BME280;40758;54.038;11.684;2023-02-10T07:08:12;102802.50;;;2.86;100.00
7297;BME280;40758;54.038;11.684;2023-02-10T07:10:41;102804.34;;;2.82;100.00
7297;BME280;40758;54.038;11.684;2023-02-10T07:13:09;102811.28;;;2.90;100.00
7297;BME280;40758;54.038;11.684;2023-02-10T07:15:38;102811.31;;;2.87;100.00
7297;BME280;40758;54.038;11.684;2023-02-10T07:18:07;102820.16;;;2.89;100.00
7297;BME280;40758;54.038;11.684;2023-02-10T07:20:36;102825.38;;;2.92;100.00
7297;BME280;40758;54.038;11.684;2023-02-10T07:23:07;102824.56;;;2.90;100.00
7297;BME280;40758;54.038;11.684;2023-02-10T07:25:37;102820.97;;;2.91;100.00
7297;BME280;40758;54.038;11.684;2023-02-10T07:28:06;102824.50;;;2.91;100.00
7297;BME280;40758;54.038;11.684;2023-02-10T07:30:35;102821.84;;;2.93;100.00
7297;BME280;40758;54.038;11.684;2023-02-10T07:33:05;102816.50;;;2.96;100.00
7297;BME280;40758;54.038;11.684;2023-02-10T07:35:34;102827.91;;;3.01;100.00
7297;BME280;40758;54.038;11.684;2023-02-10T07:38:03;102829.56;;;3.05;100.00
7297;BME280;40758;54.038;11.684;2023-02-10T07:40:34;102831.25;;;3.09;100.00
7297;BME280;40758;54.038;11.684;2023-02-10T07:43:03;102830.31;;;3.13;100.00
7297;BME280;40758;54.038;11.684;2023-02-10T07:45:32;102838.28;;;3.13;100.00
7297;BME280;40758;54.038;11.684;2023-02-10T07:48:02;102825.81;;;3.16;100.00
7297;BME280;40758;54.038;11.684;2023-02-10T07:50:31;102833.69;;;3.21;100.00
7297;BME280;40758;54.038;11.684;2023-02-10T07:53:01;102839.03;;;3.19;100.00
7297;BME280;40758;54.038;11.684;2023-02-10T07:55:30;102841.56;;;3.27;100.00
7297;BME280;40758;54.038;11.684;2023-02-10T07:58:05;102843.28;;;3.28;100.00
7297;BME280;40758;54.038;11.684;2023-02-10T08:00:38;102858.34;;;3.28;100.00
7297;BME280;40758;54.038;11.684;2023-02-10T08:03:11;102849.47;;;3.30;100.00
7297;BME280;40758;54.038;11.684;2023-02-10T08:05:40;102849.53;;;3.27;100.00
7297;BME280;40758;54.038;11.684;2023-02-10T08:08:11;102857.63;;;3.19;100.00
7297;BME280;40758;54.038;11.684;2023-02-10T08:10:41;102856.56;;;3.28;100.00
7297;BME280;40758;54.038;11.684;2023-02-10T08:13:12;102856.53;;;3.31;100.00
7297;BME280;40758;54.038;11.684;2023-02-10T08:15:41;102852.00;;;3.35;100.00
7297;BME280;40758;54.038;11.684;2023-02-10T08:18:10;102862.53;;;3.41;100.00
7297;BME280;40758;54.038;11.684;2023-02-10T08:20:38;102871.25;;;3.47;100.00
7297;BME280;40758;54.038;11.684;2023-02-10T08:23:13;102868.31;;;3.61;100.00
7297;BME280;40758;54.038;11.684;2023-02-10T08:25:43;102869.00;;;3.71;100.00
7297;BME280;40758;54.038;11.684;2023-02-10T08:28:14;102861.28;;;3.58;100.00
7297;BME280;40758;54.038;11.684;2023-02-10T08:30:44;102878.72;;;3.72;100.00
7297;BME280;40758;54.038;11.684;2023-02-10T08:33:12;102881.31;;;3.76;100.00
7297;BME280;40758;54.038;11.684;2023-02-10T08:35:41;102881.13;;;3.84;100.00
7297;BME280;40758;54.038;11.684;2023-02-10T08:38:10;102870.56;;;3.81;100.00
7297;BME280;40758;54.038;11.684;2023-02-10T08:40:38;102865.38;;;3.75;100.00
7297;BME280;40758;54.038;11.684;2023-02-10T08:43:07;102874.25;;;3.74;100.00
7297;BME280;40758;54.038;11.684;2023-02-10T08:45:37;102870.63;;;3.78;100.00
7297;BME280;40758;54.038;11.684;2023-02-10T08:48:07;102871.88;;;4.01;100.00
7297;BME280;40758;54.038;11.684;2023-02-10T08:50:36;102881.34;;;4.15;100.00
7297;BME280;40758;54.038;11.684;2023-02-10T08:53:05;102869.75;;;4.17;100.00
7297;BME280;40758;54.038;11.684;2023-02-10T08:55:34;102874.88;;;4.26;100.00
7297;BME280;40758;54.038;11.684;2023-02-10T08:58:03;102876.13;;;4.48;100.00
7297;BME280;40758;54.038;11.684;2023-02-10T09:00:33;102885.03;;;4.47;100.00
7297;BME280;40758;54.038;11.684;2023-02-10T09:03:03;102879.75;;;4.44;100.00
7297;BME280;40758;54.038;11.684;2023-02-10T09:05:35;102878.69;;;4.52;100.00
7297;BME280;40758;54.038;11.684;2023-02-10T09:08:03;102882.91;;;4.62;100.00
7297;BME280;40758;54.038;11.684;2023-02-10T09:10:32;102876.94;;;4.51;100.00
7297;BME280;40758;54.038;11.684;2023-02-10T09:13:00;102880.72;;;4.42;100.00
7297;BME280;40758;54.038;11.684;2023-02-10T09:15:28;102876.63;;;4.27;100.00
7297;BME280;40758;54.038;11.684;2023-02-10T09:17:57;102886.34;;;4.28;100.00
7297;BME280;40758;54.038;11.684;2023-02-10T09:20:26;102880.97;;;4.31;100.00
7297;BME280;40758;54.038;11.684;2023-02-10T09:22:55;102883.56;;;4.34;100.00
7297;BME280;40758;54.038;11.684;2023-02-10T09:25:24;102883.56;;;4.34;100.00
7297;BME280;40758;54.038;11.684;2023-02-10T09:27:53;102885.44;;;4.29;100.00
7297;BME280;40758;54.038;11.684;2023-02-10T09:30:25;102897.22;;;4.19;100.00
7297;BME280;40758;54.038;11.684;2023-02-10T09:32:54;102894.47;;;4.22;100.00
7297;BME280;40758;54.038;11.684;2023-02-10T09:35:23;102903.28;;;4.26;100.00
7297;BME280;40758;54.038;11.684;2023-02-10T09:37:52;102902.91;;;4.42;100.00
7297;BME280;40758;54.038;11.684;2023-02-10T09:40:26;102907.94;;;4.55;100.00
7297;BME280;40758;54.038;11.684;2023-02-10T09:43:07;102911.47;;;4.55;100.00
7297;BME280;40758;54.038;11.684;2023-02-10T09:45:41;102913.16;;;4.58;100.00
7297;BME280;40758;54.038;11.684;2023-02-10T09:48:27;102910.44;;;4.61;100.00
7297;BME280;40758;54.038;11.684;2023-02-10T09:51:08;102906.13;;;4.57;100.00
7297;BME280;40758;54.038;11.684;2023-02-10T09:53:41;102921.41;;;4.47;100.00
7297;BME280;40758;54.038;11.684;2023-02-10T09:56:16;102918.72;;;4.48;100.00
7297;BME280;40758;54.038;11.684;2023-02-10T09:58:50;102917.66;;;4.56;100.00
7297;BME280;40758;54.038;11.684;2023-02-10T10:01:25;102921.25;;;4.55;100.00
7297;BME280;40758;54.038;11.684;2023-02-10T10:03:59;102927.75;;;4.41;100.00
7297;BME280;40758;54.038;11.684;2023-02-10T10:06:32;102935.56;;;4.49;100.00
7297;BME280;40758;54.038;11.684;2023-02-10T10:09:18;102941.84;;;4.45;100.00
7297;BME280;40758;54.038;11.684;2023-02-10T10:11:54;102945.41;;;4.45;100.00
7297;BME280;40758;54.038;11.684;2023-02-10T10:14:26;102942.53;;;4.55;100.00
7297;BME280;40758;54.038;11.684;2023-02-10T10:17:19;102939.59;;;4.67;100.00
7297;BME280;40758;54.038;11.684;2023-02-10T10:20:21;102936.63;;;4.79;100.00
7297;BME280;40758;54.038;11.684;2023-02-10T10:23:12;102930.69;;;4.68;100.00
7297;BME280;40758;54.038;11.684;2023-02-10T10:26:00;102919.09;;;5.06;100.00
7297;BME280;40758;54.038;11.684;2023-02-10T10:28:45;102913.53;;;5.47;100.00
7297;BME280;40758;54.038;11.684;2023-02-10T10:31:19;102914.16;;;5.24;100.00
7297;BME280;40758;54.038;11.684;2023-02-10T10:33:52;102911.88;;;5.09;100.00
7297;BME280;40758;54.038;11.684;2023-02-10T10:36:31;102900.41;;;5.40;100.00
7297;BME280;40758;54.038;11.684;2023-02-10T10:39:13;102897.44;;;5.81;100.00
7297;BME280;40758;54.038;11.684;2023-02-10T10:41:48;102893.47;;;5.97;100.00
7297;BME280;40758;54.038;11.684;2023-02-10T10:44:30;102894.97;;;5.75;100.00
7297;BME280;40758;54.038;11.684;2023-02-10T10:47:11;102886.91;;;6.07;100.00
7297;BME280;40758;54.038;11.684;2023-02-10T10:49:42;102883.22;;;6.41;100.00
7297;BME280;40758;54.038;11.684;2023-02-10T10:52:28;102874.38;;;6.39;100.00
7297;BME280;40758;54.038;11.684;2023-02-10T10:55:01;102879.41;;;5.92;100.00
7297;BME280;40758;54.038;11.684;2023-02-10T10:57:33;102879.88;;;6.05;100.00
7297;BME280;40758;54.038;11.684;2023-02-10T11:00:17;102876.13;;;6.40;100.00
7297;BME280;40758;54.038;11.684;2023-02-10T11:02:54;102865.31;;;6.17;100.00
7297;BME280;40758;54.038;11.684;2023-02-10T11:05:29;102864.16;;;6.24;100.00
7297;BME280;40758;54.038;11.684;2023-02-10T11:07:59;102863.22;;;6.54;100.00
7297;BME280;40758;54.038;11.684;2023-02-10T11:10:47;102854.09;;;6.33;100.00
7297;BME280;40758;54.038;11.684;2023-02-10T11:13:21;102862.09;;;6.33;100.00
7297;BME280;40758;54.038;11.684;2023-02-10T11:16:00;102861.16;;;6.06;100.00
7297;BME280;40758;54.038;11.684;2023-02-10T11:18:30;102868.16;;;6.11;100.00
7297;BME280;40758;54.038;11.684;2023-02-10T11:21:02;102862.25;;;6.29;100.00
7297;BME280;40758;54.038;11.684;2023-02-10T11:23:31;102850.19;;;5.86;100.00
7297;BME280;40758;54.038;11.684;2023-02-10T11:26:03;102845.63;;;5.91;100.00
7297;BME280;40758;54.038;11.684;2023-02-10T11:28:35;102842.22;;;6.42;100.00
7297;BME280;40758;54.038;11.684;2023-02-10T11:31:28;102842.81;;;6.52;100.00
7297;BME280;40758;54.038;11.684;2023-02-10T11:34:03;102828.91;;;6.14;100.00
7297;BME280;40758;54.038;11.684;2023-02-10T11:36:37;102825.97;;;6.49;100.00
7297;BME280;40758;54.038;11.684;2023-02-10T11:39:15;102814.50;;;6.46;100.00
7297;BME280;40758;54.038;11.684;2023-02-10T11:41:45;102819.00;;;6.72;100.00
7297;BME280;40758;54.038;11.684;2023-02-10T11:44:26;102813.41;;;6.53;100.00
7297;BME280;40758;54.038;11.684;2023-02-10T11:46:57;102822.38;;;6.77;100.00
7297;BME280;40758;54.038;11.684;2023-02-10T11:49:27;102810.75;;;6.52;100.00
7297;BME280;40758;54.038;11.684;2023-02-10T11:52:01;102821.97;;;6.08;100.00
7297;BME280;40758;54.038;11.684;2023-02-10T11:54:30;102824.34;;;5.88;100.00
7297;BME280;40758;54.038;11.684;2023-02-10T11:57:21;102822.91;;;6.06;100.00
7297;BME280;40758;54.038;11.684;2023-02-10T12:00:25;102829.69;;;6.44;100.00
7297;BME280;40758;54.038;11.684;2023-02-10T12:03:35;102828.84;;;6.96;100.00
7297;BME280;40758;54.038;11.684;2023-02-10T12:06:15;102829.03;;;6.90;100.00
7297;BME280;40758;54.038;11.684;2023-02-10T12:09:11;102820.50;;;6.79;100.00
7297;BME280;40758;54.038;11.684;2023-02-10T12:11:52;102814.75;;;6.38;100.00
7297;BME280;40758;54.038;11.684;2023-02-10T12:14:44;102824.09;;;5.97;100.00
7297;BME280;40758;54.038;11.684;2023-02-10T12:17:28;102833.41;;;6.12;100.00
7297;BME280;40758;54.038;11.684;2023-02-10T12:20:21;102828.16;;;6.09;100.00
7297;BME280;40758;54.038;11.684;2023-02-10T12:23:15;102823.78;;;5.77;100.00
7297;BME280;40758;54.038;11.684;2023-02-10T12:25:58;102828.94;;;5.54;100.00
7297;BME280;40758;54.038;11.684;2023-02-10T12:28:43;102825.56;;;5.47;100.00
7297;BME280;40758;54.038;11.684;2023-02-10T12:31:26;102822.53;;;5.59;100.00
7297;BME280;40758;54.038;11.684;2023-02-10T12:34:19;102820.81;;;5.57;100.00
7297;BME280;40758;54.038;11.684;2023-02-10T12:36:58;102814.88;;;5.49;100.00
7297;BME280;40758;54.038;11.684;2023-02-10T12:39:38;102820.25;;;5.46;100.00
7297;BME280;40758;54.038;11.684;2023-02-10T12:42:26;102801.75;;;5.41;100.00
7297;BME280;40758;54.038;11.684;2023-02-10T12:45:08;102802.88;;;5.33;100.00
7297;BME280;40758;54.038;11.684;2023-02-10T12:47:48;102798.75;;;5.52;100.00
7297;BME280;40758;54.038;11.684;2023-02-10T12:50:52;102768.16;;;5.65;100.00
7297;BME280;40758;54.038;11.684;2023-02-10T12:53:34;102771.75;;;5.62;100.00
7297;BME280;40758;54.038;11.684;2023-02-10T12:56:09;102764.22;;;5.77;100.00
7297;BME280;40758;54.038;11.684;2023-02-10T12:58:46;102771.50;;;6.01;100.00
7297;BME280;40758;54.038;11.684;2023-02-10T13:01:23;102765.28;;;6.00;100.00
7297;BME280;40758;54.038;11.684;2023-02-10T13:04:12;102764.28;;;6.04;100.00
7297;BME280;40758;54.038;11.684;2023-02-10T13:06:52;102766.47;;;5.92;100.00
7297;BME280;40758;54.038;11.684;2023-02-10T13:09:30;102777.81;;;5.98;100.00
7297;BME280;40758;54.038;11.684;2023-02-10T13:12:17;102776.94;;;5.98;100.00
7297;BME280;40758;54.038;11.684;2023-02-10T13:14:57;102777.06;;;5.93;100.00
7297;BME280;40758;54.038;11.684;2023-02-10T13:17:43;102764.88;;;5.85;100.00
7297;BME280;40758;54.038;11.684;2023-02-10T13:20:30;102769.34;;;5.84;100.00
7297;BME280;40758;54.038;11.684;2023-02-10T13:23:23;102768.41;;;5.56;100.00
7297;BME280;40758;54.038;11.684;2023-02-10T13:26:23;102763.88;;;5.59;100.00